sensor_id;sensor_type;location;lat;lon;timestamp;P1;durP1;ratioP1;P2;durP2;ratioP2
8568;SDS011;4322;51.104;-4.162;2023-04-03T00:00:18;2.53;;;2.43;;
8568;SDS011;4322;51.104;-4.162;2023-04-03T00:02:47;2.50;;;2.40;;
8568;SDS011;4322;51.104;-4.162;2023-04-03T00:05:15;2.63;;;2.53;;
8568;SDS011;4322;51.104;-4.162;2023-04-03T00:07:42;2.53;;;2.43;;
8568;SDS011;4322;51.104;-4.162;2023-04-03T00:10:10;2.60;;;2.50;;
8568;SDS011;4322;51.104;-4.162;2023-04-03T00:12:38;2.80;;;2.70;;
8568;SDS011;4322;51.104;-4.162;2023-04-03T00:15:06;3.20;;;3.10;;
8568;SDS011;4322;51.104;-4.162;2023-04-03T00:17:34;3.37;;;3.27;;
8568;SDS011;4322;51.104;-4.162;2023-04-03T00:20:04;3.30;;;3.20;;
8568;SDS011;4322;51.104;-4.162;2023-04-03T00:22:32;3.00;;;2.90;;
8568;SDS011;4322;51.104;-4.162;2023-04-03T00:24:59;3.10;;;3.00;;
8568;SDS011;4322;51.104;-4.162;2023-04-03T00:27:27;3.07;;;2.97;;
8568;SDS011;4322;51.104;-4.162;2023-04-03T00:29:55;3.10;;;3.00;;
8568;SDS011;4322;51.104;-4.162;2023-04-03T00:32:23;3.40;;;3.30;;
8568;SDS011;4322;51.104;-4.162;2023-04-03T00:34:50;3.10;;;3.00;;
8568;SDS011;4322;51.104;-4.162;2023-04-03T00:37:19;3.30;;;3.20;;
8568;SDS011;4322;51.104;-4.162;2023-04-03T00:39:47;3.67;;;3.57;;
8568;SDS011;4322;51.104;-4.162;2023-04-03T00:42:15;3.57;;;3.47;;
8568;SDS011;4322;51.104;-4.162;2023-04-03T00:47:29;3.20;;;3.10;;
8568;SDS011;4322;51.104;-4.162;2023-04-03T00:49:58;3.33;;;3.23;;
8568;SDS011;4322;51.104;-4.162;2023-04-03T00:52:28;3.80;;;3.70;;
8568;SDS011;4322;51.104;-4.162;2023-04-03T00:54:57;3.33;;;3.23;;
8568;SDS011;4322;51.104;-4.162;2023-04-03T00:57:27;3.50;;;3.40;;
8568;SDS011;4322;51.104;-4.162;2023-04-03T00:59:56;3.30;;;3.20;;
8568;SDS011;4322;51.104;-4.162;2023-04-03T01:02:25;3.43;;;3.33;;
8568;SDS011;4322;51.104;-4.162;2023-04-03T01:04:53;3.40;;;3.30;;
8568;SDS011;4322;51.104;-4.162;2023-04-03T01:07:22;3.33;;;3.23;;
8568;SDS011;4322;51.104;-4.162;2023-04-03T01:09:52;3.50;;;3.40;;
8568;SDS011;4322;51.104;-4.162;2023-04-03T01:12:22;3.77;;;3.67;;
8568;SDS011;4322;51.104;-4.162;2023-04-03T01:14:50;3.57;;;3.47;;
8568;SDS011;4322;51.104;-4.162;2023-04-03T01:17:24;3.80;;;3.70;;
8568;SDS011;4322;51.104;-4.162;2023-04-03T01:19:56;3.70;;;3.60;;
8568;SDS011;4322;51.104;-4.162;2023-04-03T01:22:27;3.63;;;3.53;;
8568;SDS011;4322;51.104;-4.162;2023-04-03T01:24:58;3.63;;;3.53;;
8568;SDS011;4322;51.104;-4.162;2023-04-03T01:27:26;3.50;;;3.40;;
8568;SDS011;4322;51.104;-4.162;2023-04-03T01:29:54;3.40;;;3.30;;
8568;SDS011;4322;51.104;-4.162;2023-04-03T01:32:23;3.57;;;3.47;;
8568;SDS011;4322;51.104;-4.162;2023-04-03T01:34:51;3.60;;;3.50;;
8568;SDS011;4322;51.104;-4.162;2023-04-03T01:37:19;3.50;;;3.40;;
8568;SDS011;4322;51.104;-4.162;2023-04-03T01:39:46;3.60;;;3.50;;
8568;SDS011;4322;51.104;-4.162;2023-04-03T01:42:14;3.63;;;3.53;;
8568;SDS011;4322;51.104;-4.162;2023-04-03T01:44:42;3.80;;;3.70;;
8568;SDS011;4322;51.104;-4.162;2023-04-03T01:47:11;3.50;;;3.40;;
8568;SDS011;4322;51.104;-4.162;2023-04-03T01:49:40;3.50;;;3.40;;
8568;SDS011;4322;51.104;-4.162;2023-04-03T01:52:07;3.80;;;3.70;;
8568;SDS011;4322;51.104;-4.162;2023-04-03T01:54:35;3.90;;;3.80;;
8568;SDS011;4322;51.104;-4.162;2023-04-03T01:57:03;3.60;;;3.50;;
8568;SDS011;4322;51.104;-4.162;2023-04-03T01:59:31;3.70;;;3.60;;
8568;SDS011;4322;51.104;-4.162;2023-04-03T02:01:58;3.97;;;3.83;;
8568;SDS011;4322;51.104;-4.162;2023-04-03T02:04:26;4.10;;;3.90;;
8568;SDS011;4322;51.104;-4.162;2023-04-03T02:06:56;3.50;;;3.40;;
8568;SDS011;4322;51.104;-4.162;2023-04-03T02:09:23;4.10;;;3.90;;
8568;SDS011;4322;51.104;-4.162;2023-04-03T02:11:52;4.50;;;4.30;;
8568;SDS011;4322;51.104;-4.162;2023-04-03T02:14:20;3.80;;;3.70;;
8568;SDS011;4322;51.104;-4.162;2023-04-03T02:16:48;4.40;;;4.20;;
8568;SDS011;4322;51.104;-4.162;2023-04-03T02:19:15;4.20;;;4.00;;
8568;SDS011;4322;51.104;-4.162;2023-04-03T02:21:43;4.10;;;3.90;;
8568;SDS011;4322;51.104;-4.162;2023-04-03T02:24:12;4.50;;;4.30;;
8568;SDS011;4322;51.104;-4.162;2023-04-03T02:26:40;4.10;;;3.90;;
8568;SDS011;4322;51.104;-4.162;2023-04-03T02:29:08;4.30;;;4.10;;
8568;SDS011;4322;51.104;-4.162;2023-04-03T02:31:36;4.20;;;4.00;;
8568;SDS011;4322;51.104;-4.162;2023-04-03T02:34:03;4.20;;;4.00;;
8568;SDS011;4322;51.104;-4.162;2023-04-03T02:36:31;4.73;;;4.53;;
8568;SDS011;4322;51.104;-4.162;2023-04-03T02:38:59;4.27;;;4.07;;
8568;SDS011;4322;51.104;-4.162;2023-04-03T02:41:28;4.20;;;4.00;;
8568;SDS011;4322;51.104;-4.162;2023-04-03T02:44:01;4.30;;;4.10;;
8568;SDS011;4322;51.104;-4.162;2023-04-03T02:46:29;4.57;;;4.37;;
8568;SDS011;4322;51.104;-4.162;2023-04-03T02:48:57;4.20;;;4.00;;
8568;SDS011;4322;51.104;-4.162;2023-04-03T02:51:24;4.60;;;4.40;;
8568;SDS011;4322;51.104;-4.162;2023-04-03T02:53:52;4.70;;;4.50;;
8568;SDS011;4322;51.104;-4.162;2023-04-03T02:56:20;4.50;;;4.30;;
8568;SDS011;4322;51.104;-4.162;2023-04-03T02:58:49;4.50;;;4.30;;
8568;SDS011;4322;51.104;-4.162;2023-04-03T03:01:17;4.60;;;4.40;;
8568;SDS011;4322;51.104;-4.162;2023-04-03T03:03:45;4.60;;;4.40;;
8568;SDS011;4322;51.104;-4.162;2023-04-03T03:06:13;4.47;;;4.27;;
8568;SDS011;4322;51.104;-4.162;2023-04-03T03:08:41;4.50;;;4.30;;
8568;SDS011;4322;51.104;-4.162;2023-04-03T03:11:09;4.80;;;4.60;;
8568;SDS011;4322;51.104;-4.162;2023-04-03T03:13:37;4.30;;;4.10;;
8568;SDS011;4322;51.104;-4.162;2023-04-03T03:16:07;4.60;;;4.40;;
8568;SDS011;4322;51.104;-4.162;2023-04-03T03:18:35;4.57;;;4.37;;
8568;SDS011;4322;51.104;-4.162;2023-04-03T03:21:03;4.40;;;4.20;;
8568;SDS011;4322;51.104;-4.162;2023-04-03T03:23:31;4.60;;;4.40;;
8568;SDS011;4322;51.104;-4.162;2023-04-03T03:26:00;4.43;;;4.23;;
8568;SDS011;4322;51.104;-4.162;2023-04-03T03:28:28;4.40;;;4.20;;
8568;SDS011;4322;51.104;-4.162;2023-04-03T03:30:56;4.47;;;4.27;;
8568;SDS011;4322;51.104;-4.162;2023-04-03T03:33:25;5.90;;;5.60;;
8568;SDS011;4322;51.104;-4.162;2023-04-03T03:35:54;6.40;;;6.10;;
8568;SDS011;4322;51.104;-4.162;2023-04-03T03:38:21;6.20;;;5.90;;
8568;SDS011;4322;51.104;-4.162;2023-04-03T03:40:49;6.10;;;5.80;;
8568;SDS011;4322;51.104;-4.162;2023-04-03T03:43:17;6.57;;;6.27;;
8568;SDS011;4322;51.104;-4.162;2023-04-03T03:45:49;6.07;;;5.77;;
8568;SDS011;4322;51.104;-4.162;2023-04-03T03:48:17;6.60;;;6.30;;
8568;SDS011;4322;51.104;-4.162;2023-04-03T03:50:46;6.77;;;6.47;;
8568;SDS011;4322;51.104;-4.162;2023-04-03T03:53:14;5.40;;;5.20;;
8568;SDS011;4322;51.104;-4.162;2023-04-03T03:55:42;5.70;;;5.50;;
8568;SDS011;4322;51.104;-4.162;2023-04-03T03:58:10;5.20;;;5.00;;
8568;SDS011;4322;51.104;-4.162;2023-04-03T04:00:38;5.30;;;5.10;;
8568;SDS011;4322;51.104;-4.162;2023-04-03T04:03:06;5.33;;;5.13;;
8568;SDS011;4322;51.104;-4.162;2023-04-03T04:05:34;4.90;;;4.70;;
8568;SDS011;4322;51.104;-4.162;2023-04-03T04:08:04;5.00;;;4.80;;
8568;SDS011;4322;51.104;-4.162;2023-04-03T04:10:32;5.10;;;4.90;;
8568;SDS011;4322;51.104;-4.162;2023-04-03T04:12:59;4.73;;;4.53;;
8568;SDS011;4322;51.104;-4.162;2023-04-03T04:15:27;5.10;;;4.90;;
8568;SDS011;4322;51.104;-4.162;2023-04-03T04:17:55;4.93;;;4.73;;
8568;SDS011;4322;51.104;-4.162;2023-04-03T04:20:23;5.47;;;5.27;;
8568;SDS011;4322;51.104;-4.162;2023-04-03T04:22:51;5.60;;;5.40;;
8568;SDS011;4322;51.104;-4.162;2023-04-03T04:25:20;5.50;;;5.30;;
8568;SDS011;4322;51.104;-4.162;2023-04-03T04:27:48;5.10;;;4.90;;
8568;SDS011;4322;51.104;-4.162;2023-04-03T04:30:16;5.97;;;5.67;;
8568;SDS011;4322;51.104;-4.162;2023-04-03T04:32:43;6.00;;;5.70;;
8568;SDS011;4322;51.104;-4.162;2023-04-03T04:35:12;5.50;;;5.30;;
8568;SDS011;4322;51.104;-4.162;2023-04-03T04:37:42;5.93;;;5.63;;
8568;SDS011;4322;51.104;-4.162;2023-04-03T04:40:10;5.90;;;5.60;;
8568;SDS011;4322;51.104;-4.162;2023-04-03T04:42:39;6.00;;;5.70;;
8568;SDS011;4322;51.104;-4.162;2023-04-03T04:45:07;6.43;;;6.13;;
8568;SDS011;4322;51.104;-4.162;2023-04-03T04:47:35;6.53;;;6.23;;
8568;SDS011;4322;51.104;-4.162;2023-04-03T04:50:03;6.30;;;6.00;;
8568;SDS011;4322;51.104;-4.162;2023-04-03T04:52:31;6.37;;;6.07;;
8568;SDS011;4322;51.104;-4.162;2023-04-03T04:54:59;6.70;;;6.40;;
8568;SDS011;4322;51.104;-4.162;2023-04-03T04:57:26;7.00;;;6.70;;
8568;SDS011;4322;51.104;-4.162;2023-04-03T04:59:56;7.10;;;6.80;;
8568;SDS011;4322;51.104;-4.162;2023-04-03T05:02:23;7.20;;;6.90;;
8568;SDS011;4322;51.104;-4.162;2023-04-03T05:04:51;7.30;;;7.00;;
8568;SDS011;4322;51.104;-4.162;2023-04-03T05:07:19;7.33;;;7.03;;
8568;SDS011;4322;51.104;-4.162;2023-04-03T05:09:47;8.30;;;7.90;;
8568;SDS011;4322;51.104;-4.162;2023-04-03T05:12:14;8.27;;;7.87;;
8568;SDS011;4322;51.104;-4.162;2023-04-03T05:14:42;8.47;;;8.07;;
8568;SDS011;4322;51.104;-4.162;2023-04-03T05:17:11;9.17;;;8.77;;
8568;SDS011;4322;51.104;-4.162;2023-04-03T05:19:39;9.87;;;9.37;;
8568;SDS011;4322;51.104;-4.162;2023-04-03T05:22:07;10.37;;;9.87;;
8568;SDS011;4322;51.104;-4.162;2023-04-03T05:24:35;11.77;;;11.17;;
8568;SDS011;4322;51.104;-4.162;2023-04-03T05:27:03;12.03;;;11.43;;
8568;SDS011;4322;51.104;-4.162;2023-04-03T05:29:31;12.73;;;12.13;;
8568;SDS011;4322;51.104;-4.162;2023-04-03T05:31:58;13.57;;;12.87;;
8568;SDS011;4322;51.104;-4.162;2023-04-03T05:34:28;14.17;;;13.47;;
8568;SDS011;4322;51.104;-4.162;2023-04-03T05:36:55;15.03;;;14.23;;
8568;SDS011;4322;51.104;-4.162;2023-04-03T05:39:23;15.57;;;14.77;;
8568;SDS011;4322;51.104;-4.162;2023-04-03T05:41:51;15.67;;;14.87;;
8568;SDS011;4322;51.104;-4.162;2023-04-03T05:44:19;16.33;;;15.53;;
8568;SDS011;4322;51.104;-4.162;2023-04-03T05:46:47;16.60;;;15.70;;
8568;SDS011;4322;51.104;-4.162;2023-04-03T05:49:15;15.57;;;14.77;;
8568;SDS011;4322;51.104;-4.162;2023-04-03T05:51:44;14.80;;;14.00;;
8568;SDS011;4322;51.104;-4.162;2023-04-03T05:54:13;14.70;;;13.90;;
8568;SDS011;4322;51.104;-4.162;2023-04-03T05:56:43;14.77;;;13.97;;
8568;SDS011;4322;51.104;-4.162;2023-04-03T05:59:11;14.27;;;13.57;;
8568;SDS011;4322;51.104;-4.162;2023-04-03T06:01:39;13.13;;;12.43;;
8568;SDS011;4322;51.104;-4.162;2023-04-03T06:04:07;12.03;;;11.43;;
8568;SDS011;4322;51.104;-4.162;2023-04-03T06:06:47;11.93;;;11.33;;
8568;SDS011;4322;51.104;-4.162;2023-04-03T06:09:15;11.50;;;10.90;;
8568;SDS011;4322;51.104;-4.162;2023-04-03T06:11:43;10.80;;;10.30;;
8568;SDS011;4322;51.104;-4.162;2023-04-03T06:14:12;11.40;;;10.80;;
8568;SDS011;4322;51.104;-4.162;2023-04-03T06:16:40;11.93;;;11.33;;
8568;SDS011;4322;51.104;-4.162;2023-04-03T06:19:08;11.17;;;10.67;;
8568;SDS011;4322;51.104;-4.162;2023-04-03T06:21:36;10.63;;;10.13;;
8568;SDS011;4322;51.104;-4.162;2023-04-03T06:24:08;11.10;;;10.60;;
8568;SDS011;4322;51.104;-4.162;2023-04-03T06:26:36;10.23;;;9.73;;
8568;SDS011;4322;51.104;-4.162;2023-04-03T06:29:04;10.53;;;10.03;;
8568;SDS011;4322;51.104;-4.162;2023-04-03T06:31:32;10.47;;;9.97;;
8568;SDS011;4322;51.104;-4.162;2023-04-03T06:33:59;10.57;;;10.07;;
8568;SDS011;4322;51.104;-4.162;2023-04-03T06:36:27;10.17;;;9.67;;
8568;SDS011;4322;51.104;-4.162;2023-04-03T06:38:55;9.97;;;9.47;;
8568;SDS011;4322;51.104;-4.162;2023-04-03T06:41:24;8.63;;;8.23;;
8568;SDS011;4322;51.104;-4.162;2023-04-03T06:43:53;9.53;;;9.03;;
8568;SDS011;4322;51.104;-4.162;2023-04-03T06:46:22;10.10;;;9.60;;
8568;SDS011;4322;51.104;-4.162;2023-04-03T06:48:51;9.17;;;8.77;;
8568;SDS011;4322;51.104;-4.162;2023-04-03T06:54:07;9.00;;;8.60;;
8568;SDS011;4322;51.104;-4.162;2023-04-03T06:56:37;8.73;;;8.33;;
8568;SDS011;4322;51.104;-4.162;2023-04-03T06:59:04;9.23;;;8.83;;
8568;SDS011;4322;51.104;-4.162;2023-04-03T07:01:32;8.93;;;8.53;;
8568;SDS011;4322;51.104;-4.162;2023-04-03T07:04:00;9.53;;;9.07;;
8568;SDS011;4322;51.104;-4.162;2023-04-03T07:06:28;9.77;;;9.27;;
8568;SDS011;4322;51.104;-4.162;2023-04-03T07:08:57;9.53;;;9.07;;
8568;SDS011;4322;51.104;-4.162;2023-04-03T07:11:25;9.73;;;9.23;;
8568;SDS011;4322;51.104;-4.162;2023-04-03T07:13:54;9.30;;;8.90;;
8568;SDS011;4322;51.104;-4.162;2023-04-03T07:16:22;8.67;;;8.27;;
8568;SDS011;4322;51.104;-4.162;2023-04-03T07:18:51;8.83;;;8.43;;
8568;SDS011;4322;51.104;-4.162;2023-04-03T07:21:18;8.90;;;8.50;;
8568;SDS011;4322;51.104;-4.162;2023-04-03T07:23:46;9.70;;;9.20;;
8568;SDS011;4322;51.104;-4.162;2023-04-03T07:26:14;8.80;;;8.40;;
8568;SDS011;4322;51.104;-4.162;2023-04-03T07:28:42;8.70;;;8.30;;
8568;SDS011;4322;51.104;-4.162;2023-04-03T07:31:12;8.70;;;8.30;;
8568;SDS011;4322;51.104;-4.162;2023-04-03T07:33:41;8.40;;;8.00;;
8568;SDS011;4322;51.104;-4.162;2023-04-03T07:36:18;8.20;;;7.80;;
8568;SDS011;4322;51.104;-4.162;2023-04-03T07:38:47;8.07;;;7.67;;
8568;SDS011;4322;51.104;-4.162;2023-04-03T07:41:15;8.30;;;7.90;;
8568;SDS011;4322;51.104;-4.162;2023-04-03T07:43:43;8.27;;;7.87;;
8568;SDS011;4322;51.104;-4.162;2023-04-03T07:46:13;8.97;;;8.57;;
8568;SDS011;4322;51.104;-4.162;2023-04-03T07:48:40;8.67;;;8.27;;
8568;SDS011;4322;51.104;-4.162;2023-04-03T07:51:09;9.17;;;8.77;;
8568;SDS011;4322;51.104;-4.162;2023-04-03T07:53:37;9.23;;;8.83;;
8568;SDS011;4322;51.104;-4.162;2023-04-03T07:56:05;9.50;;;9.10;;
8568;SDS011;4322;51.104;-4.162;2023-04-03T07:58:33;9.43;;;9.03;;
8568;SDS011;4322;51.104;-4.162;2023-04-03T08:01:00;10.23;;;9.73;;
8568;SDS011;4322;51.104;-4.162;2023-04-03T08:03:30;9.17;;;8.77;;
8568;SDS011;4322;51.104;-4.162;2023-04-03T08:06:01;9.97;;;9.47;;
8568;SDS011;4322;51.104;-4.162;2023-04-03T08:08:30;10.17;;;9.67;;
8568;SDS011;4322;51.104;-4.162;2023-04-03T08:10:59;10.40;;;9.90;;
8568;SDS011;4322;51.104;-4.162;2023-04-03T08:13:29;10.57;;;10.07;;
8568;SDS011;4322;51.104;-4.162;2023-04-03T08:15:57;10.30;;;9.80;;
8568;SDS011;4322;51.104;-4.162;2023-04-03T08:18:25;9.73;;;9.23;;
8568;SDS011;4322;51.104;-4.162;2023-04-03T08:20:55;10.50;;;10.00;;
8568;SDS011;4322;51.104;-4.162;2023-04-03T08:23:23;10.60;;;10.10;;
8568;SDS011;4322;51.104;-4.162;2023-04-03T08:25:50;10.97;;;10.47;;
8568;SDS011;4322;51.104;-4.162;2023-04-03T08:28:18;11.07;;;10.57;;
8568;SDS011;4322;51.104;-4.162;2023-04-03T08:30:46;12.13;;;11.53;;
8568;SDS011;4322;51.104;-4.162;2023-04-03T08:33:14;12.27;;;11.67;;
8568;SDS011;4322;51.104;-4.162;2023-04-03T08:35:42;12.03;;;11.43;;
8568;SDS011;4322;51.104;-4.162;2023-04-03T08:38:11;11.60;;;11.00;;
8568;SDS011;4322;51.104;-4.162;2023-04-03T08:40:39;11.07;;;10.57;;
8568;SDS011;4322;51.104;-4.162;2023-04-03T08:43:14;11.90;;;11.30;;
8568;SDS011;4322;51.104;-4.162;2023-04-03T08:45:44;11.93;;;11.33;;
8568;SDS011;4322;51.104;-4.162;2023-04-03T08:48:15;11.83;;;11.23;;
8568;SDS011;4322;51.104;-4.162;2023-04-03T08:50:45;11.10;;;10.60;;
8568;SDS011;4322;51.104;-4.162;2023-04-03T08:53:16;12.60;;;12.00;;
8568;SDS011;4322;51.104;-4.162;2023-04-03T08:55:45;12.13;;;11.53;;
8568;SDS011;4322;51.104;-4.162;2023-04-03T08:58:15;12.07;;;11.47;;
8568;SDS011;4322;51.104;-4.162;2023-04-03T09:00:44;11.70;;;11.10;;
8568;SDS011;4322;51.104;-4.162;2023-04-03T09:03:13;12.23;;;11.63;;
8568;SDS011;4322;51.104;-4.162;2023-04-03T09:05:43;12.10;;;11.50;;
8568;SDS011;4322;51.104;-4.162;2023-04-03T09:08:18;11.83;;;11.23;;
8568;SDS011;4322;51.104;-4.162;2023-04-03T09:10:47;11.93;;;11.33;;
8568;SDS011;4322;51.104;-4.162;2023-04-03T09:13:20;12.50;;;11.90;;
8568;SDS011;4322;51.104;-4.162;2023-04-03T09:15:49;11.30;;;10.77;;
8568;SDS011;4322;51.104;-4.162;2023-04-03T09:18:19;11.97;;;11.37;;
8568;SDS011;4322;51.104;-4.162;2023-04-03T09:20:49;11.83;;;11.23;;
8568;SDS011;4322;51.104;-4.162;2023-04-03T09:23:24;12.20;;;11.60;;
8568;SDS011;4322;51.104;-4.162;2023-04-03T09:25:56;11.83;;;11.23;;
8568;SDS011;4322;51.104;-4.162;2023-04-03T09:28:24;11.40;;;10.83;;
8568;SDS011;4322;51.104;-4.162;2023-04-03T09:30:54;11.00;;;10.50;;
8568;SDS011;4322;51.104;-4.162;2023-04-03T09:33:22;12.10;;;11.50;;
8568;SDS011;4322;51.104;-4.162;2023-04-03T09:35:50;11.20;;;10.70;;
8568;SDS011;4322;51.104;-4.162;2023-04-03T09:38:19;11.57;;;10.97;;
8568;SDS011;4322;51.104;-4.162;2023-04-03T09:40:49;11.60;;;11.00;;
8568;SDS011;4322;51.104;-4.162;2023-04-03T09:43:25;11.83;;;11.23;;
8568;SDS011;4322;51.104;-4.162;2023-04-03T09:45:53;10.80;;;10.30;;
8568;SDS011;4322;51.104;-4.162;2023-04-03T09:48:22;11.03;;;10.53;;
8568;SDS011;4322;51.104;-4.162;2023-04-03T09:50:55;11.10;;;10.60;;
8568;SDS011;4322;51.104;-4.162;2023-04-03T09:53:30;10.43;;;9.93;;
8568;SDS011;4322;51.104;-4.162;2023-04-03T09:56:00;10.73;;;10.23;;
8568;SDS011;4322;51.104;-4.162;2023-04-03T09:58:30;10.43;;;9.93;;
8568;SDS011;4322;51.104;-4.162;2023-04-03T10:01:23;9.20;;;8.80;;
8568;SDS011;4322;51.104;-4.162;2023-04-03T10:04:02;7.67;;;7.33;;
8568;SDS011;4322;51.104;-4.162;2023-04-03T10:06:30;8.20;;;7.80;;
8568;SDS011;4322;51.104;-4.162;2023-04-03T10:08:59;7.40;;;7.10;;
8568;SDS011;4322;51.104;-4.162;2023-04-03T10:11:32;6.50;;;6.20;;
8568;SDS011;4322;51.104;-4.162;2023-04-03T10:14:00;6.63;;;6.33;;
8568;SDS011;4322;51.104;-4.162;2023-04-03T10:16:32;5.60;;;5.40;;
8568;SDS011;4322;51.104;-4.162;2023-04-03T10:19:05;5.10;;;4.90;;
8568;SDS011;4322;51.104;-4.162;2023-04-03T10:21:39;4.53;;;4.33;;
8568;SDS011;4322;51.104;-4.162;2023-04-03T10:24:10;4.10;;;3.90;;
8568;SDS011;4322;51.104;-4.162;2023-04-03T10:26:43;3.60;;;3.50;;
8568;SDS011;4322;51.104;-4.162;2023-04-03T10:29:16;3.80;;;3.70;;
8568;SDS011;4322;51.104;-4.162;2023-04-03T10:31:49;3.20;;;3.10;;
8568;SDS011;4322;51.104;-4.162;2023-04-03T10:34:20;3.10;;;3.00;;
8568;SDS011;4322;51.104;-4.162;2023-04-03T10:36:50;3.60;;;3.50;;
8568;SDS011;4322;51.104;-4.162;2023-04-03T10:39:23;3.20;;;3.10;;
8568;SDS011;4322;51.104;-4.162;2023-04-03T10:41:58;2.73;;;2.63;;
8568;SDS011;4322;51.104;-4.162;2023-04-03T10:44:45;2.70;;;2.60;;
8568;SDS011;4322;51.104;-4.162;2023-04-03T10:47:18;1.93;;;1.93;;
8568;SDS011;4322;51.104;-4.162;2023-04-03T10:49:50;1.90;;;1.90;;
8568;SDS011;4322;51.104;-4.162;2023-04-03T10:52:27;2.00;;;2.00;;
8568;SDS011;4322;51.104;-4.162;2023-04-03T10:55:01;1.70;;;1.70;;
8568;SDS011;4322;51.104;-4.162;2023-04-03T10:57:31;1.60;;;1.60;;
8568;SDS011;4322;51.104;-4.162;2023-04-03T11:00:01;1.50;;;1.50;;
8568;SDS011;4322;51.104;-4.162;2023-04-03T11:02:30;1.40;;;1.40;;
8568;SDS011;4322;51.104;-4.162;2023-04-03T11:04:59;1.30;;;1.30;;
8568;SDS011;4322;51.104;-4.162;2023-04-03T11:07:29;1.20;;;1.20;;
8568;SDS011;4322;51.104;-4.162;2023-04-03T11:10:02;1.10;;;1.10;;
8568;SDS011;4322;51.104;-4.162;2023-04-03T11:12:33;1.20;;;1.20;;
8568;SDS011;4322;51.104;-4.162;2023-04-03T11:15:06;0.90;;;0.90;;
8568;SDS011;4322;51.104;-4.162;2023-04-03T11:17:39;1.20;;;1.20;;
8568;SDS011;4322;51.104;-4.162;2023-04-03T11:20:14;1.23;;;1.23;;
8568;SDS011;4322;51.104;-4.162;2023-04-03T11:22:43;1.17;;;1.17;;
8568;SDS011;4322;51.104;-4.162;2023-04-03T11:25:18;1.20;;;1.20;;
8568;SDS011;4322;51.104;-4.162;2023-04-03T11:27:51;1.23;;;1.23;;
8568;SDS011;4322;51.104;-4.162;2023-04-03T11:30:21;1.00;;;1.00;;
8568;SDS011;4322;51.104;-4.162;2023-04-03T11:32:54;1.23;;;1.23;;
8568;SDS011;4322;51.104;-4.162;2023-04-03T11:35:24;1.20;;;1.20;;
8568;SDS011;4322;51.104;-4.162;2023-04-03T11:37:52;1.50;;;1.50;;
8568;SDS011;4322;51.104;-4.162;2023-04-03T11:40:22;1.40;;;1.40;;
8568;SDS011;4322;51.104;-4.162;2023-04-03T11:42:53;1.07;;;1.07;;
8568;SDS011;4322;51.104;-4.162;2023-04-03T11:45:24;1.30;;;1.30;;
8568;SDS011;4322;51.104;-4.162;2023-04-03T11:47:53;1.20;;;1.20;;
8568;SDS011;4322;51.104;-4.162;2023-04-03T11:53:34;1.30;;;1.30;;
8568;SDS011;4322;51.104;-4.162;2023-04-03T12:01:43;1.30;;;1.30;;
8568;SDS011;4322;51.104;-4.162;2023-04-03T12:04:12;1.30;;;1.30;;
8568;SDS011;4322;51.104;-4.162;2023-04-03T12:09:33;1.20;;;1.20;;
8568;SDS011;4322;51.104;-4.162;2023-04-03T12:12:01;1.37;;;1.37;;
8568;SDS011;4322;51.104;-4.162;2023-04-03T12:14:48;1.37;;;1.37;;
8568;SDS011;4322;51.104;-4.162;2023-04-03T12:17:21;1.40;;;1.40;;
8568;SDS011;4322;51.104;-4.162;2023-04-03T12:19:50;1.40;;;1.40;;
8568;SDS011;4322;51.104;-4.162;2023-04-03T12:22:19;1.27;;;1.27;;
8568;SDS011;4322;51.104;-4.162;2023-04-03T12:24:48;1.30;;;1.30;;
8568;SDS011;4322;51.104;-4.162;2023-04-03T12:30:06;1.30;;;1.30;;
8568;SDS011;4322;51.104;-4.162;2023-04-03T12:35:39;1.30;;;1.30;;
8568;SDS011;4322;51.104;-4.162;2023-04-03T12:38:14;1.20;;;1.20;;
8568;SDS011;4322;51.104;-4.162;2023-04-03T12:40:47;1.20;;;1.20;;
8568;SDS011;4322;51.104;-4.162;2023-04-03T12:43:31;1.20;;;1.20;;
8568;SDS011;4322;51.104;-4.162;2023-04-03T12:46:03;1.40;;;1.40;;
8568;SDS011;4322;51.104;-4.162;2023-04-03T12:48:32;1.33;;;1.33;;
8568;SDS011;4322;51.104;-4.162;2023-04-03T12:51:02;1.10;;;1.10;;
8568;SDS011;4322;51.104;-4.162;2023-04-03T12:53:32;1.40;;;1.40;;
8568;SDS011;4322;51.104;-4.162;2023-04-03T12:58:43;1.50;;;1.50;;
8568;SDS011;4322;51.104;-4.162;2023-04-03T13:01:11;1.50;;;1.50;;
8568;SDS011;4322;51.104;-4.162;2023-04-03T13:03:40;1.40;;;1.40;;
8568;SDS011;4322;51.104;-4.162;2023-04-03T13:06:13;1.10;;;1.10;;
8568;SDS011;4322;51.104;-4.162;2023-04-03T13:08:48;1.20;;;1.20;;
8568;SDS011;4322;51.104;-4.162;2023-04-03T13:11:15;1.30;;;1.30;;
8568;SDS011;4322;51.104;-4.162;2023-04-03T13:13:53;1.47;;;1.47;;
8568;SDS011;4322;51.104;-4.162;2023-04-03T13:16:21;1.40;;;1.40;;
8568;SDS011;4322;51.104;-4.162;2023-04-03T13:18:50;1.40;;;1.40;;
8568;SDS011;4322;51.104;-4.162;2023-04-03T13:21:20;1.50;;;1.50;;
8568;SDS011;4322;51.104;-4.162;2023-04-03T13:23:50;1.50;;;1.50;;
8568;SDS011;4322;51.104;-4.162;2023-04-03T13:26:29;1.40;;;1.40;;
8568;SDS011;4322;51.104;-4.162;2023-04-03T13:28:59;1.50;;;1.50;;
8568;SDS011;4322;51.104;-4.162;2023-04-03T13:31:29;1.50;;;1.50;;
8568;SDS011;4322;51.104;-4.162;2023-04-03T13:34:02;1.50;;;1.50;;
8568;SDS011;4322;51.104;-4.162;2023-04-03T13:36:32;1.20;;;1.20;;
8568;SDS011;4322;51.104;-4.162;2023-04-03T13:39:03;1.20;;;1.20;;
8568;SDS011;4322;51.104;-4.162;2023-04-03T13:41:32;1.13;;;1.13;;
8568;SDS011;4322;51.104;-4.162;2023-04-03T13:44:16;1.20;;;1.20;;
8568;SDS011;4322;51.104;-4.162;2023-04-03T13:46:43;1.20;;;1.20;;
8568;SDS011;4322;51.104;-4.162;2023-04-03T13:49:18;1.40;;;1.40;;
8568;SDS011;4322;51.104;-4.162;2023-04-03T13:51:47;1.33;;;1.33;;
8568;SDS011;4322;51.104;-4.162;2023-04-03T13:54:33;1.50;;;1.50;;
8568;SDS011;4322;51.104;-4.162;2023-04-03T13:57:01;1.20;;;1.20;;
8568;SDS011;4322;51.104;-4.162;2023-04-03T13:59:30;1.30;;;1.30;;
8568;SDS011;4322;51.104;-4.162;2023-04-03T14:02:15;1.40;;;1.40;;
8568;SDS011;4322;51.104;-4.162;2023-04-03T14:04:46;1.20;;;1.20;;
8568;SDS011;4322;51.104;-4.162;2023-04-03T14:07:16;1.17;;;1.17;;
8568;SDS011;4322;51.104;-4.162;2023-04-03T14:09:46;1.20;;;1.20;;
8568;SDS011;4322;51.104;-4.162;2023-04-03T14:12:15;1.30;;;1.30;;
8568;SDS011;4322;51.104;-4.162;2023-04-03T14:14:56;1.30;;;1.30;;
8568;SDS011;4322;51.104;-4.162;2023-04-03T14:17:25;1.20;;;1.20;;
8568;SDS011;4322;51.104;-4.162;2023-04-03T14:19:54;1.40;;;1.40;;
8568;SDS011;4322;51.104;-4.162;2023-04-03T14:22:25;1.40;;;1.40;;
8568;SDS011;4322;51.104;-4.162;2023-04-03T14:24:54;1.30;;;1.30;;
8568;SDS011;4322;51.104;-4.162;2023-04-03T14:27:24;1.37;;;1.37;;
8568;SDS011;4322;51.104;-4.162;2023-04-03T14:29:52;1.37;;;1.37;;
8568;SDS011;4322;51.104;-4.162;2023-04-03T14:32:22;1.50;;;1.50;;
8568;SDS011;4322;51.104;-4.162;2023-04-03T14:34:50;1.60;;;1.60;;
8568;SDS011;4322;51.104;-4.162;2023-04-03T14:37:20;1.33;;;1.33;;
8568;SDS011;4322;51.104;-4.162;2023-04-03T14:39:50;1.30;;;1.30;;
8568;SDS011;4322;51.104;-4.162;2023-04-03T14:42:21;1.30;;;1.30;;
8568;SDS011;4322;51.104;-4.162;2023-04-03T14:44:49;1.50;;;1.50;;
8568;SDS011;4322;51.104;-4.162;2023-04-03T14:47:19;1.50;;;1.50;;
8568;SDS011;4322;51.104;-4.162;2023-04-03T14:49:56;1.53;;;1.53;;
8568;SDS011;4322;51.104;-4.162;2023-04-03T14:52:26;1.50;;;1.50;;
8568;SDS011;4322;51.104;-4.162;2023-04-03T14:54:56;1.40;;;1.40;;
8568;SDS011;4322;51.104;-4.162;2023-04-03T14:57:24;1.40;;;1.40;;
8568;SDS011;4322;51.104;-4.162;2023-04-03T14:59:55;1.60;;;1.60;;
8568;SDS011;4322;51.104;-4.162;2023-04-03T15:02:27;1.50;;;1.50;;
8568;SDS011;4322;51.104;-4.162;2023-04-03T15:04:58;1.60;;;1.60;;
8568;SDS011;4322;51.104;-4.162;2023-04-03T15:07:26;1.60;;;1.60;;
8568;SDS011;4322;51.104;-4.162;2023-04-03T15:09:56;1.50;;;1.50;;
8568;SDS011;4322;51.104;-4.162;2023-04-03T15:12:24;1.50;;;1.50;;
8568;SDS011;4322;51.104;-4.162;2023-04-03T15:14:51;1.50;;;1.50;;
8568;SDS011;4322;51.104;-4.162;2023-04-03T15:17:28;1.60;;;1.60;;
8568;SDS011;4322;51.104;-4.162;2023-04-03T15:19:56;1.57;;;1.57;;
8568;SDS011;4322;51.104;-4.162;2023-04-03T15:22:23;1.60;;;1.60;;
8568;SDS011;4322;51.104;-4.162;2023-04-03T15:24:51;1.70;;;1.70;;
8568;SDS011;4322;51.104;-4.162;2023-04-03T15:27:20;1.53;;;1.53;;
8568;SDS011;4322;51.104;-4.162;2023-04-03T15:29:48;1.60;;;1.60;;
8568;SDS011;4322;51.104;-4.162;2023-04-03T15:32:16;1.60;;;1.60;;
8568;SDS011;4322;51.104;-4.162;2023-04-03T15:34:43;1.50;;;1.50;;